Terminal Aerodrome Forecast
Issued by NWS

Home | Current Version | Previous Version | Text Only | Print | Product List | Glossary On
Versions: 1 2 3 4 5 6 7 8 9 10 11 12
000
FTUS43 KBIS 311100
TAFJMS
TAF
KJMS 311129Z 3112/0112 33004KT P6SM VCFG SCT050
     FM311500 34005KT P6SM SCT050
     FM010200 VRB04KT P6SM BKN050=

USA.gov is the U.S. government's official web portal to all federal, state and local government web resources and services.